• Join FlightAware (Why Join?)
  • Login
  • US Flag 
12:35AM EDT


 

Airport Tracker/Info


-or-


 

Live Flight TrackerFlight Track Log ✈ AAL2400 ✈ 29-Jul-2013 ✈ KDFW - KBNA

Flight Track Log - Related Links

Times and Time Zones

All times are in EDT time to prevent confusion due to time zone crossing. See the AAL2400 flight status page for this flight to view local times or setup timezone preferences in your user account.

Time Position Orientation Groundspeed Altitude Reporting Facility
EDT Latitude Longitude Course Direction KTS MPH feet Rate Location/Type
07:56AM 32.8790 -97.0300 180° South 156 180 1,400  Level FlightAware
07:56AM 32.8560 -97.0280 176° South 183 211 2,200 1,380 Climbing FlightAware
07:57AM 32.8300 -97.0180 162° South 230 265 2,800 1,800 Climbing FlightAware
07:57AM 32.8060 -97.0070 159° South 236 272 3,800 2,580 Climbing FlightAware
07:57AM 32.7880 -96.9950 151° Southeast 247 284 4,600 2,340 Climbing FlightAware
07:58AM 32.7810 -96.9850 130° Southeast 254 292 4,900 2,160 Climbing FlightAware
07:58AM 32.7740 -96.9680 116° Southeast 261 300 5,500 2,520 Climbing FlightAware
07:58AM 32.7660 -96.9310 104° East 273 314 6,600 2,280 Climbing FlightAware
07:59AM 32.7670 -96.8760 89° East 296 341 7,800 2,280 Climbing FlightAware
07:59AM 32.7710 -96.8310 84° East 302 348 9,000 1,980 Climbing FlightAware
08:00AM 32.7860 -96.7880 67° East 301 346 9,700 1,860 Climbing FlightAware
08:00AM 32.8070 -96.7390 63° Northeast 319 367 10,900 1,740 Climbing FlightAware
08:01AM 32.8390 -96.6600 64° Northeast 368 423 12,000 2,100 Climbing FlightAware
08:02AM 32.8690 -96.5830 65° Northeast 377 434 14,000 2,700 Climbing FlightAware
08:02AM 32.8940 -96.5210 64° Northeast 393 452 15,300 2,280 Climbing FlightAware
08:03AM 32.9300 -96.4320 64° Northeast 408 470 16,900 1,200 Climbing FlightAware
08:04AM 32.9590 -96.3570 65° Northeast 408 470 17,000 900 Climbing FlightAware
08:04AM 32.9800 -96.2600 76° East 412 474 18,200 1,920 Climbing FlightAware
08:05AM 32.9940 -96.1610 80° East 426 490 19,800 2,160 Climbing FlightAware
08:06AM 33.0070 -96.0630 81° East 437 503 21,300 2,100 Climbing FlightAware
08:06AM 33.0200 -95.9700 81° East 449 517 22,700 2,160 Climbing FlightAware
08:07AM 33.0357 -95.8549 81° East 447 514 24,400 1,980 Climbing FlightAware ADS-B
08:09AM 33.0640 -95.6470 81° East 467 537 26,900 1,620 Climbing FlightAware
08:09AM 33.0810 -95.5460 79° East 479 551 27,800 1,380 Climbing FlightAware
08:10AM 33.1110 -95.4440 71° East 485 558 28,800 1,560 Climbing FlightAware
08:11AM 33.1450 -95.3310 70° East 487 560 30,100 1,620 Climbing FlightAware
08:12AM 33.1880 -95.1880 70° East 483 556 31,800 1,860 Climbing FlightAware
08:12AM 33.2240 -95.0650 71° East 475 547 33,400 2,160 Climbing FlightAware
08:13AM 33.2490 -94.9800 71° East 467 537 34,600 780 Climbing FlightAware
08:14AM 33.2810 -94.8750 70° East 467 537 34,600 360 Level FlightAware
08:15AM 33.3140 -94.7620 71° East 466 536 35,200 900 Climbing FlightAware
08:15AM 33.3510 -94.6380 70° East 462 532 36,000 900 Climbing FlightAware
08:17AM 33.3987 -94.4717 71° East 456 525 37,000 480 Climbing FlightAware ADS-B
08:17AM 33.4379 -94.3370 71° East 451 519 37,000  Level FlightAware ADS-B
08:19AM 33.4881 -94.1637 71° East 443 510 37,000  Level FlightAware ADS-B
08:19AM 33.5098 -94.0879 71° East 441 507 37,000  Level FlightAware ADS-B
08:22AM 33.6540 -93.7130 65° Northeast 435 501 37,000  Level FlightAware
08:23AM 33.6840 -93.6360 65° Northeast 435 501 37,000  Level FlightAware
08:24AM 33.7180 -93.5470 65° Northeast 435 501 37,000  Level FlightAware
08:25AM 33.7680 -93.4180 65° Northeast 435 501 37,000  Level FlightAware
08:26AM 33.8120 -93.3060 65° Northeast 435 501 37,000  Level FlightAware
08:27AM 33.8380 -93.2390 65° Northeast 435 501 37,000  Level FlightAware
08:27AM 33.8640 -93.1720 65° Northeast 435 501 37,000  Level FlightAware
08:28AM 33.8980 -93.0820 66° East 435 501 37,000  Level FlightAware
08:29AM 33.9240 -93.0150 65° Northeast 435 501 37,000  Level FlightAware
08:30AM 33.9680 -92.9010 65° Northeast 435 501 37,000  Level FlightAware
08:30AM 33.9940 -92.8340 65° Northeast 435 501 37,000  Level FlightAware
08:31AM 34.0290 -92.7440 65° Northeast 435 501 37,000  Level FlightAware
08:32AM 34.0550 -92.6770 65° Northeast 435 501 37,000  Level FlightAware
08:32AM 34.1675 -92.3453 65° Northeast 435 501 37,000  Level Memphis Center
08:33AM 34.2194 -92.2108 65° Northeast 435 501 37,000  Level Memphis Center
08:34AM 34.2717 -92.0739 65° Northeast 435 501 37,000  Level Memphis Center
08:35AM 34.3172 -91.9414 67° East 435 501 37,000  Level Memphis Center
08:36AM 34.3689 -91.8042 65° Northeast 435 501 37,000  Level Memphis Center
08:37AM 34.4183 -91.6714 66° East 435 501 37,000  Level Memphis Center
08:38AM 34.4678 -91.5361 66° East 434 499 37,000  Level Memphis Center
08:39AM 34.5211 -91.3906 66° East 434 499 37,000  Level Memphis Center
08:40AM 34.5703 -91.2500 67° East 434 499 37,000  Level Memphis Center
08:41AM 34.6192 -91.1142 66° East 434 499 37,000  Level Memphis Center
08:42AM 34.6678 -90.9783 66° East 439 505 37,000  Level Memphis Center
08:43AM 34.7186 -90.8397 66° East 439 505 37,000  Level Memphis Center
08:44AM 34.7669 -90.7008 67° East 445 512 37,000  Level Memphis Center
08:45AM 34.8153 -90.5644 67° East 438 504 37,000  Level Memphis Center
08:46AM 34.8633 -90.4256 67° East 438 504 37,000  Level Memphis Center
08:47AM 34.9156 -90.2861 65° Northeast 438 504 37,000  Level Memphis Center
08:48AM 34.9592 -90.1619 67° East 443 510 37,000  Level Memphis Center
08:49AM 35.0089 -90.0200 67° East 443 510 37,000 -480 Level Memphis Center
08:50AM 35.0606 -89.8725 67° East 457 526 36,100 -960 Descending Memphis Center
08:51AM 35.1119 -89.7097 69° East 462 532 35,100 -600 Descending Memphis Center
08:52AM 35.1592 -89.5622 69° East 467 537 35,000 -60 Descending Memphis Center
08:53AM 35.2061 -89.4142 69° East 467 537 35,000  Level Memphis Center
08:54AM 35.2550 -89.2689 68° East 467 537 35,000  Level Memphis Center
08:55AM 35.3056 -89.1206 67° East 467 537 35,000  Level Memphis Center
08:56AM 35.3522 -88.9722 69° East 462 532 35,000  Level Memphis Center
08:57AM 35.3964 -88.8442 67° East 462 532 35,000 -660 Level Memphis Center
08:58AM 35.4406 -88.6931 70° East 457 526 33,700 -2,340 Descending Memphis Center
08:59AM 35.4906 -88.5389 68° East 462 532 30,400 -2,940 Descending Memphis Center
09:00AM 35.5381 -88.3900 69° East 468 539 27,900 -2,460 Descending Memphis Center
09:06AM 35.7910 -87.5890 69° East 390 449 13,700 -2,460 Descending FlightAware
09:07AM 35.8140 -87.5170 68° East 375 432 12,400 -2,280 Descending FlightAware
09:07AM 35.8360 -87.4570 66° East 362 417 11,200 -1,800 Descending FlightAware
09:08AM 35.8610 -87.3890 66° East 344 396 10,300 -1,200 Descending FlightAware
09:08AM 35.8770 -87.3450 66° East 323 372 10,000 -720 Descending FlightAware
09:09AM 35.8890 -87.3130 65° Northeast 307 353 9,800 -780 Descending FlightAware
09:09AM 35.8960 -87.2780 76° East 304 350 9,500 -1,320 Descending FlightAware
09:10AM 35.8950 -87.2260 91° East 308 354 8,700 -1,560 Descending FlightAware
09:10AM 35.8950 -87.1910 90° East 300 345 8,200 -1,380 Descending FlightAware
09:10AM 35.8940 -87.1580 92° East 293 337 7,800 -1,200 Descending FlightAware
09:11AM 35.8940 -87.1250 90° East 288 331 7,400 -1,200 Descending FlightAware
09:11AM 35.8940 -87.0760 90° East 274 315 6,800 -1,200 Descending FlightAware
09:11AM 35.8940 -87.0520 90° East 272 313 6,400 -1,140 Descending FlightAware
09:12AM 35.8950 -87.0290 87° East 272 313 6,100 -1,440 Descending FlightAware
09:12AM 35.8950 -86.9810 90° East 267 307 5,400 -1,140 Descending FlightAware
09:13AM 35.8950 -86.9380 90° East 251 289 5,100 -420 Descending FlightAware
09:13AM 35.8940 -86.9130 93° East 229 264 5,100  Level FlightAware
09:13AM 35.8940 -86.8850 90° East 207 238 5,100 -360 Level FlightAware
09:13AM 35.8930 -86.8690 94° East 201 231 4,900 -900 Descending FlightAware
09:14AM 35.8930 -86.8470 90° East 196 226 4,600 -900 Descending FlightAware
09:14AM 35.8950 -86.8230 84° East 186 214 4,300 -840 Descending FlightAware
09:14AM 35.8980 -86.8070 77° East 183 211 4,100 -840 Descending FlightAware
09:15AM 35.9010 -86.7860 80° East 181 208 3,800 -720 Descending FlightAware
09:15AM 35.9060 -86.7730 65° Northeast 174 200 3,700 -240 Descending FlightAware
09:15AM 35.9140 -86.7660 35° Northeast 174 200 3,700  Level FlightAware
09:16AM 35.9280 -86.7580 25° Northeast 175 201 3,700 -360 Level FlightAware
09:16AM 35.9430 -86.7510 21° North 178 205 3,500 -720 Descending FlightAware
09:16AM 35.9620 -86.7440 17° North 174 200 3,200 -780 Descending FlightAware
09:17AM 35.9740 -86.7400 15° North 170 196 3,000 -840 Descending FlightAware
09:17AM 35.9900 -86.7340 17° North 170 196 2,700 -900 Descending FlightAware
09:17AM 36.0040 -86.7280 19° North 172 198 2,400 -960 Descending FlightAware
09:18AM 36.0230 -86.7200 19° North 170 196 2,000 -1,080 Descending FlightAware
09:18AM 36.0350 -86.7150 19° North 162 186 1,700 -900 Descending FlightAware
09:18AM 36.0460 -86.7110 16° North 148 170 1,500 -720 Descending FlightAware
09:19AM 36.0620 -86.7040 19° North 141 162 1,200 -480 Descending FlightAware
09:19AM 36.0860 -86.6950 17° North 144 166 1,000 -300 Descending FlightAware
09:20AM 36.1250 -86.6800 17° North 147 169 700 -300 Descending Memphis Center